Time;durP1;ratioP1;P1;durP2;ratioP2;P2;SDS_P1;SDS_P2;PMS_P1;PMS_P2;Temp;Humidity;BMP_temperature;BMP_pressure;BME280_temperature;BME280_humidity;BME280_pressure;Samples;Min_cycle;Max_cycle;Signal;HPM_P1;HPM_P2
2021/07/04 00:01:11;;;;;;;17.47;15.67;;;;;;;;;;5052340;28;20501;-78
2021/07/04 00:03:37;;;;;;;20.10;17.80;;;;;;;;;;5038433;28;20419;-78
2021/07/04 00:06:04;;;;;;;22.40;17.77;;;;;;;;;;5034473;28;20946;-78
2021/07/04 00:08:30;;;;;;;20.17;18.10;;;;;;;;;;5034488;28;20413;-78
2021/07/04 00:10:59;;;;;;;21.13;18.83;;;;;;;;;;5034474;28;20463;-78
2021/07/04 00:13:25;;;;;;;23.93;18.60;;;;;;;;;;5034070;28;20405;-78
2021/07/04 00:15:51;;;;;;;21.90;19.03;;;;;;;;;;5032806;28;20481;-78
2021/07/04 00:18:19;;;;;;;21.13;17.10;;;;;;;;;;5034224;28;20417;-78
2021/07/04 00:20:45;;;;;;;24.27;19.87;;;;;;;;;;5034299;28;20387;-78
2021/07/04 00:23:12;;;;;;;23.87;21.47;;;;;;;;;;5032568;28;20889;-78
2021/07/04 00:25:38;;;;;;;23.97;21.30;;;;;;;;;;5034103;28;20433;-78
2021/07/04 00:28:04;;;;;;;25.57;22.63;;;;;;;;;;5032765;28;20449;-78
2021/07/04 00:30:31;;;;;;;30.23;24.40;;;;;;;;;;5033981;28;20388;-78
2021/07/04 00:32:56;;;;;;;31.57;25.40;;;;;;;;;;5033851;28;20417;-78
2021/07/04 00:35:23;;;;;;;26.57;23.77;;;;;;;;;;5033672;28;20497;-78
2021/07/04 00:37:50;;;;;;;27.87;22.67;;;;;;;;;;5034044;28;20380;-78
2021/07/04 00:40:16;;;;;;;28.53;23.40;;;;;;;;;;5033714;28;20865;-78
2021/07/04 00:42:42;;;;;;;25.47;22.40;;;;;;;;;;5033816;28;20413;-78
2021/07/04 00:45:09;;;;;;;27.13;24.10;;;;;;;;;;5033512;28;20429;-78
2021/07/04 00:47:35;;;;;;;23.07;20.67;;;;;;;;;;5033866;28;20391;-78
2021/07/04 00:50:01;;;;;;;24.23;21.37;;;;;;;;;;5033840;28;20391;-78
2021/07/04 00:52:28;;;;;;;23.90;21.47;;;;;;;;;;5033672;28;20391;-78
2021/07/04 00:54:53;;;;;;;23.30;21.10;;;;;;;;;;5033263;28;20456;-77
2021/07/04 00:57:20;;;;;;;28.80;23.17;;;;;;;;;;5033654;28;20391;-77
2021/07/04 00:59:46;;;;;;;25.90;22.23;;;;;;;;;;5033675;28;20410;-78
2021/07/04 01:02:12;;;;;;;23.03;20.50;;;;;;;;;;5032992;28;20403;-78
2021/07/04 01:04:38;;;;;;;28.13;21.80;;;;;;;;;;5033082;28;20404;-78
2021/07/04 01:07:04;;;;;;;32.53;21.40;;;;;;;;;;5033472;28;20380;-78
2021/07/04 01:09:30;;;;;;;22.97;20.50;;;;;;;;;;5033650;28;20387;-78
2021/07/04 01:11:56;;;;;;;27.50;20.73;;;;;;;;;;5033515;28;20882;-79
2021/07/04 01:14:22;;;;;;;22.60;20.13;;;;;;;;;;5032762;28;20444;-78
2021/07/04 01:16:48;;;;;;;25.40;20.47;;;;;;;;;;5033338;28;20482;-78
2021/07/04 01:19:15;;;;;;;22.90;19.90;;;;;;;;;;5032140;28;20391;-78
2021/07/04 01:21:42;;;;;;;25.67;21.07;;;;;;;;;;5033360;28;20413;-78
2021/07/04 01:24:08;;;;;;;23.97;21.33;;;;;;;;;;5032865;28;20410;-78
2021/07/04 01:26:34;;;;;;;26.53;23.73;;;;;;;;;;5033046;28;20411;-79
2021/07/04 01:29:00;;;;;;;29.50;21.10;;;;;;;;;;5033386;28;20452;-78
2021/07/04 01:31:26;;;;;;;23.87;21.47;;;;;;;;;;5033183;28;20421;-78
2021/07/04 01:33:52;;;;;;;25.17;22.43;;;;;;;;;;5032821;28;20392;-78
2021/07/04 01:36:19;;;;;;;27.30;21.60;;;;;;;;;;5033032;28;20475;-78
2021/07/04 01:38:45;;;;;;;25.63;21.23;;;;;;;;;;5032875;28;20939;-78
2021/07/04 01:41:11;;;;;;;28.73;23.30;;;;;;;;;;5031821;28;20395;-79
2021/07/04 01:43:37;;;;;;;24.20;21.60;;;;;;;;;;5032746;28;20403;-78
2021/07/04 01:46:03;;;;;;;23.83;20.83;;;;;;;;;;5031901;28;20959;-78
2021/07/04 01:48:29;;;;;;;27.17;21.60;;;;;;;;;;5031722;28;20474;-78
2021/07/04 01:50:55;;;;;;;22.60;20.33;;;;;;;;;;5032844;28;20821;-78
2021/07/04 01:53:22;;;;;;;25.20;22.03;;;;;;;;;;5031489;28;20777;-78
2021/07/04 01:55:48;;;;;;;28.93;23.97;;;;;;;;;;5031693;28;20443;-78
2021/07/04 01:58:14;;;;;;;32.03;23.27;;;;;;;;;;5032971;28;21004;-78
2021/07/04 02:00:40;;;;;;;26.57;22.40;;;;;;;;;;5033021;28;20387;-78
2021/07/04 02:03:09;;;;;;;30.40;21.63;;;;;;;;;;5032678;28;20455;-78
2021/07/04 02:05:35;;;;;;;30.43;22.73;;;;;;;;;;5032907;28;20411;-78
2021/07/04 02:08:01;;;;;;;32.23;24.20;;;;;;;;;;5031535;28;20948;-78
2021/07/04 02:10:28;;;;;;;28.77;22.00;;;;;;;;;;5031709;28;20504;-78
2021/07/04 02:12:55;;;;;;;29.97;20.37;;;;;;;;;;5032380;28;20469;-78
2021/07/04 02:15:22;;;;;;;28.03;20.97;;;;;;;;;;5036221;28;20442;-78
2021/07/04 02:17:49;;;;;;;26.43;23.17;;;;;;;;;;5036528;28;20452;-78
2021/07/04 02:20:15;;;;;;;33.27;25.33;;;;;;;;;;5035325;28;20785;-78
2021/07/04 02:22:41;;;;;;;32.17;25.77;;;;;;;;;;5036316;28;21008;-77
2021/07/04 02:25:07;;;;;;;26.87;21.50;;;;;;;;;;5035931;28;20503;-78
2021/07/04 02:27:33;;;;;;;27.17;22.53;;;;;;;;;;5036303;28;20431;-78
2021/07/04 02:29:59;;;;;;;26.73;23.57;;;;;;;;;;5036272;28;20395;-78
2021/07/04 02:32:25;;;;;;;29.93;24.33;;;;;;;;;;5035053;28;20499;-77
2021/07/04 02:34:51;;;;;;;29.07;23.77;;;;;;;;;;5035691;28;20522;-78
2021/07/04 02:37:17;;;;;;;27.93;22.57;;;;;;;;;;5034734;28;20388;-77
2021/07/04 02:39:43;;;;;;;28.07;24.67;;;;;;;;;;5036081;28;20893;-78
2021/07/04 02:42:10;;;;;;;32.67;22.30;;;;;;;;;;5036322;28;20436;-78
2021/07/04 02:44:36;;;;;;;26.70;21.07;;;;;;;;;;5035711;28;20870;-78
2021/07/04 02:47:02;;;;;;;33.97;24.50;;;;;;;;;;5036160;28;20482;-78
2021/07/04 02:49:28;;;;;;;32.20;25.67;;;;;;;;;;5036079;28;20802;-77
2021/07/04 02:51:53;;;;;;;31.93;23.83;;;;;;;;;;5034711;28;20417;-78
2021/07/04 02:54:19;;;;;;;25.70;20.60;;;;;;;;;;5035661;28;20876;-78
2021/07/04 02:56:45;;;;;;;28.23;21.47;;;;;;;;;;5035955;28;20547;-77
2021/07/04 02:59:11;;;;;;;23.13;19.30;;;;;;;;;;5035651;28;20979;-77
2021/07/04 03:01:37;;;;;;;24.17;20.50;;;;;;;;;;5035749;28;20492;-78
2021/07/04 03:04:03;;;;;;;24.07;21.03;;;;;;;;;;5035490;28;20793;-78
2021/07/04 03:06:29;;;;;;;26.20;21.10;;;;;;;;;;5035616;28;20406;-78
2021/07/04 03:08:55;;;;;;;31.00;21.97;;;;;;;;;;5035799;28;20418;-78
2021/07/04 03:11:21;;;;;;;30.10;23.27;;;;;;;;;;5035383;28;20787;-78
2021/07/04 03:13:47;;;;;;;30.17;22.70;;;;;;;;;;5035054;28;20413;-78
2021/07/04 03:16:13;;;;;;;36.83;25.30;;;;;;;;;;5035578;28;20467;-78
2021/07/04 03:18:39;;;;;;;29.70;25.23;;;;;;;;;;5035586;28;20384;-78
2021/07/04 03:21:05;;;;;;;30.07;24.50;;;;;;;;;;5035525;28;20459;-77
2021/07/04 03:23:31;;;;;;;29.07;24.77;;;;;;;;;;5034916;28;20820;-78
2021/07/04 03:25:57;;;;;;;30.13;23.07;;;;;;;;;;5034885;28;20406;-78
2021/07/04 03:28:23;;;;;;;26.80;22.57;;;;;;;;;;5035123;28;20948;-78
2021/07/04 03:30:49;;;;;;;27.57;24.60;;;;;;;;;;5035128;28;20422;-78
2021/07/04 03:33:15;;;;;;;35.53;25.00;;;;;;;;;;5034837;28;20384;-78
2021/07/04 03:35:41;;;;;;;26.87;22.47;;;;;;;;;;5034733;28;20490;-78
2021/07/04 03:38:07;;;;;;;33.33;24.93;;;;;;;;;;5035015;28;20516;-77
2021/07/04 03:40:33;;;;;;;26.70;23.90;;;;;;;;;;5033690;28;20413;-77
2021/07/04 03:42:59;;;;;;;33.97;27.67;;;;;;;;;;5034580;28;20384;-77
2021/07/04 03:45:26;;;;;;;29.10;23.13;;;;;;;;;;5034779;28;20423;-77
2021/07/04 03:47:52;;;;;;;27.40;23.30;;;;;;;;;;5034811;28;20421;-78
2021/07/04 03:50:18;;;;;;;29.20;23.00;;;;;;;;;;5034710;28;20442;-78
2021/07/04 03:52:44;;;;;;;27.93;21.10;;;;;;;;;;5034542;28;20434;-78
2021/07/04 03:55:11;;;;;;;26.87;23.20;;;;;;;;;;5034559;28;20439;-77
2021/07/04 03:57:38;;;;;;;23.50;21.10;;;;;;;;;;5034621;28;20816;-77
2021/07/04 04:00:05;;;;;;;25.97;21.57;;;;;;;;;;5034580;28;20388;-78
2021/07/04 04:02:31;;;;;;;21.43;19.20;;;;;;;;;;5034767;28;20409;-77
2021/07/04 04:04:58;;;;;;;26.33;20.50;;;;;;;;;;5034324;28;20436;-78
2021/07/04 04:07:25;;;;;;;22.63;19.80;;;;;;;;;;5034628;28;20413;-77
2021/07/04 04:09:52;;;;;;;23.10;20.60;;;;;;;;;;5034487;28;20398;-78
2021/07/04 04:12:21;;;;;;;21.10;18.90;;;;;;;;;;5034470;28;20445;-78
2021/07/04 04:14:48;;;;;;;22.00;18.40;;;;;;;;;;5032645;28;20456;-78
2021/07/04 04:17:13;;;;;;;22.90;20.40;;;;;;;;;;5016975;28;20572;-78
2021/07/04 04:19:40;;;;;;;20.00;18.00;;;;;;;;;;5034174;28;20948;-77
2021/07/04 04:22:06;;;;;;;21.10;18.97;;;;;;;;;;5034062;28;20941;-77
2021/07/04 04:24:32;;;;;;;22.10;18.90;;;;;;;;;;5033838;28;20763;-77
2021/07/04 04:26:58;;;;;;;20.40;17.10;;;;;;;;;;5034032;28;20405;-77
2021/07/04 04:29:24;;;;;;;19.40;17.30;;;;;;;;;;5034011;28;20928;-78
2021/07/04 04:31:50;;;;;;;19.57;17.43;;;;;;;;;;5033958;28;20405;-78
2021/07/04 04:34:18;;;;;;;24.13;18.10;;;;;;;;;;5033487;28;20525;-77
2021/07/04 04:36:44;;;;;;;19.83;17.03;;;;;;;;;;5031760;28;21119;-78
2021/07/04 04:39:10;;;;;;;20.30;17.50;;;;;;;;;;5032690;28;20531;-78
2021/07/04 04:41:36;;;;;;;19.67;17.23;;;;;;;;;;5033933;28;20409;-79
2021/07/04 04:44:03;;;;;;;17.60;15.70;;;;;;;;;;5033276;28;20441;-79
2021/07/04 04:46:29;;;;;;;16.83;15.13;;;;;;;;;;5033749;28;20395;-78
2021/07/04 04:48:55;;;;;;;20.07;16.57;;;;;;;;;;5033860;28;20467;-77
2021/07/04 04:51:22;;;;;;;20.27;17.07;;;;;;;;;;5033971;28;20417;-78
2021/07/04 04:53:48;;;;;;;19.37;17.37;;;;;;;;;;5032165;28;20983;-77
2021/07/04 04:56:14;;;;;;;18.73;16.77;;;;;;;;;;5032184;28;20439;-78
2021/07/04 04:58:40;;;;;;;22.27;18.50;;;;;;;;;;5033681;28;20924;-78
2021/07/04 05:01:06;;;;;;;22.70;19.40;;;;;;;;;;5032527;28;20425;-78
2021/07/04 05:03:32;;;;;;;21.80;19.60;;;;;;;;;;5033184;28;20425;-77
2021/07/04 05:05:58;;;;;;;19.93;17.77;;;;;;;;;;5033398;28;20414;-78
2021/07/04 05:08:25;;;;;;;22.27;19.93;;;;;;;;;;5033290;28;20489;-78
2021/07/04 05:10:52;;;;;;;22.10;16.33;;;;;;;;;;5033376;28;20395;-78
2021/07/04 05:13:18;;;;;;;19.70;17.60;;;;;;;;;;5033028;28;20424;-78
2021/07/04 05:15:44;;;;;;;21.10;18.70;;;;;;;;;;5033169;28;20439;-78
2021/07/04 05:18:10;;;;;;;18.03;16.23;;;;;;;;;;5033322;28;20416;-78
2021/07/04 05:20:36;;;;;;;19.87;17.67;;;;;;;;;;5033383;28;20420;-78
2021/07/04 05:23:02;;;;;;;18.67;16.83;;;;;;;;;;5033035;28;20434;-78
2021/07/04 05:25:28;;;;;;;19.90;18.00;;;;;;;;;;5033372;28;20879;-78
2021/07/04 05:27:54;;;;;;;18.47;16.40;;;;;;;;;;5033290;28;20415;-78
2021/07/04 05:30:20;;;;;;;18.63;16.80;;;;;;;;;;5033139;28;20412;-78
2021/07/04 05:32:46;;;;;;;18.73;16.70;;;;;;;;;;5032805;28;20467;-79
2021/07/04 05:35:12;;;;;;;19.97;17.83;;;;;;;;;;5033004;28;20507;-78
2021/07/04 05:37:38;;;;;;;21.13;16.40;;;;;;;;;;5031865;28;20435;-78
2021/07/04 05:40:10;;;;;;;17.73;15.87;;;;;;;;;;5033064;28;20842;-78
2021/07/04 05:42:36;;;;;;;15.77;13.90;;;;;;;;;;5031564;28;20417;-79
2021/07/04 05:45:07;;;;;;;15.80;14.30;;;;;;;;;;5032775;28;20411;-78
2021/07/04 05:47:33;;;;;;;15.80;14.20;;;;;;;;;;5033920;28;20405;-78
2021/07/04 05:49:59;;;;;;;17.60;14.27;;;;;;;;;;5037241;28;20805;-78
2021/07/04 05:52:25;;;;;;;15.97;14.40;;;;;;;;;;5036977;28;20416;-78
2021/07/04 05:54:51;;;;;;;19.57;15.33;;;;;;;;;;5036500;28;20437;-78
2021/07/04 05:57:17;;;;;;;14.37;12.87;;;;;;;;;;5035709;28;20506;-79
2021/07/04 05:59:42;;;;;;;15.97;14.03;;;;;;;;;;5036800;28;20415;-78
2021/07/04 06:02:09;;;;;;;15.70;13.90;;;;;;;;;;5036830;28;20417;-78
2021/07/04 06:04:35;;;;;;;15.90;13.40;;;;;;;;;;5036394;28;20481;-78
2021/07/04 06:07:01;;;;;;;13.80;12.40;;;;;;;;;;5036927;28;20391;-78
2021/07/04 06:09:27;;;;;;;15.17;12.30;;;;;;;;;;5036861;28;20880;-78
2021/07/04 06:11:53;;;;;;;19.13;13.07;;;;;;;;;;5036654;28;20428;-77
2021/07/04 06:14:19;;;;;;;13.00;10.93;;;;;;;;;;5034831;28;20439;-78
2021/07/04 06:16:45;;;;;;;11.03;9.90;;;;;;;;;;5035213;28;20447;-78
2021/07/04 06:19:11;;;;;;;13.80;11.13;;;;;;;;;;5035288;28;20395;-78
2021/07/04 06:21:37;;;;;;;12.70;10.60;;;;;;;;;;5035322;28;20387;-78
2021/07/04 06:24:03;;;;;;;12.43;10.53;;;;;;;;;;5035968;28;20403;-78
2021/07/04 06:26:30;;;;;;;11.00;9.97;;;;;;;;;;5036198;28;20448;-78
2021/07/04 06:28:56;;;;;;;10.73;9.57;;;;;;;;;;5018447;28;20490;-78
2021/07/04 06:31:22;;;;;;;10.93;9.83;;;;;;;;;;5036289;28;20452;-78
2021/07/04 06:33:49;;;;;;;11.67;10.57;;;;;;;;;;5035742;28;20502;-77
2021/07/04 06:36:15;;;;;;;13.43;10.07;;;;;;;;;;5034665;28;20817;-78
2021/07/04 06:38:41;;;;;;;11.20;10.00;;;;;;;;;;5035970;28;20927;-78
2021/07/04 06:41:07;;;;;;;10.60;8.40;;;;;;;;;;5035961;28;20387;-78
2021/07/04 06:43:33;;;;;;;11.80;8.73;;;;;;;;;;5035771;28;20417;-78
2021/07/04 06:45:59;;;;;;;10.43;8.57;;;;;;;;;;5036197;28;20929;-78
2021/07/04 06:48:25;;;;;;;7.57;6.77;;;;;;;;;;5035860;28;20524;-78
2021/07/04 06:50:51;;;;;;;12.10;8.67;;;;;;;;;;5034522;28;20413;-79
2021/07/04 06:53:17;;;;;;;8.27;7.40;;;;;;;;;;5035344;28;20473;-78
2021/07/04 06:55:43;;;;;;;7.93;6.67;;;;;;;;;;5035851;28;20468;-78
2021/07/04 06:58:09;;;;;;;10.93;7.57;;;;;;;;;;5034672;28;20384;-77
2021/07/04 07:00:35;;;;;;;8.07;7.07;;;;;;;;;;5035006;28;20419;-78
2021/07/04 07:03:01;;;;;;;7.50;6.70;;;;;;;;;;5034999;28;20409;-78
2021/07/04 07:05:27;;;;;;;8.47;7.73;;;;;;;;;;5034421;28;20933;-77
2021/07/04 07:07:53;;;;;;;7.67;6.90;;;;;;;;;;5035688;28;20823;-78
2021/07/04 07:10:19;;;;;;;7.73;6.93;;;;;;;;;;5035538;28;20515;-78
2021/07/04 07:12:45;;;;;;;10.93;6.57;;;;;;;;;;5033900;28;20509;-79
2021/07/04 07:15:12;;;;;;;8.47;7.03;;;;;;;;;;5034906;28;20443;-77
2021/07/04 07:17:39;;;;;;;9.13;8.10;;;;;;;;;;5035147;28;20401;-78
2021/07/04 07:20:06;;;;;;;7.93;7.20;;;;;;;;;;5035638;28;20429;-78
2021/07/04 07:22:32;;;;;;;8.00;6.80;;;;;;;;;;5035478;28;20924;-78
2021/07/04 07:24:58;;;;;;;10.70;7.53;;;;;;;;;;5034990;28;20433;-78
2021/07/04 07:27:24;;;;;;;9.67;7.33;;;;;;;;;;5033760;28;20396;-78
2021/07/04 07:29:50;;;;;;;9.97;7.77;;;;;;;;;;5034219;28;20490;-78
2021/07/04 07:32:16;;;;;;;8.63;7.70;;;;;;;;;;5033842;28;20387;-77
2021/07/04 07:34:42;;;;;;;7.30;6.60;;;;;;;;;;5034515;28;20494;-78
2021/07/04 07:37:09;;;;;;;7.83;7.03;;;;;;;;;;5034779;28;20386;-77
2021/07/04 07:39:35;;;;;;;9.63;6.70;;;;;;;;;;5033617;28;20409;-78
2021/07/04 07:42:01;;;;;;;7.70;6.90;;;;;;;;;;5034912;28;20394;-78
2021/07/04 07:44:27;;;;;;;7.77;6.60;;;;;;;;;;5034529;28;20425;-77
2021/07/04 07:46:53;;;;;;;7.77;6.97;;;;;;;;;;5034875;28;20462;-78
2021/07/04 07:49:19;;;;;;;7.67;6.97;;;;;;;;;;5034683;28;20399;-78
2021/07/04 07:51:49;;;;;;;7.37;6.57;;;;;;;;;;5034524;28;20384;-78
2021/07/04 07:54:15;;;;;;;9.50;7.87;;;;;;;;;;5033247;28;20411;-78
2021/07/04 07:56:41;;;;;;;8.57;6.00;;;;;;;;;;5033499;28;20485;-78
2021/07/04 07:59:07;;;;;;;7.00;5.63;;;;;;;;;;5034480;28;20413;-77
2021/07/04 08:01:33;;;;;;;7.50;6.80;;;;;;;;;;5034416;28;20444;-78
2021/07/04 08:03:59;;;;;;;6.63;6.03;;;;;;;;;;5034065;28;20436;-78
2021/07/04 08:06:25;;;;;;;8.10;6.27;;;;;;;;;;5034410;28;20413;-78
2021/07/04 08:08:51;;;;;;;7.77;6.40;;;;;;;;;;5034601;28;20875;-78
2021/07/04 08:11:17;;;;;;;7.77;5.40;;;;;;;;;;5034735;28;20416;-79
2021/07/04 08:13:43;;;;;;;10.30;5.57;;;;;;;;;;5033802;28;20756;-78
2021/07/04 08:16:09;;;;;;;6.40;5.90;;;;;;;;;;5034439;28;20499;-78
2021/07/04 08:18:35;;;;;;;9.40;6.40;;;;;;;;;;5034438;28;20466;-78
2021/07/04 08:21:01;;;;;;;6.30;5.80;;;;;;;;;;5034231;28;20404;-78
2021/07/04 08:23:27;;;;;;;7.23;5.93;;;;;;;;;;5033768;28;20890;-78
2021/07/04 08:25:53;;;;;;;6.50;5.90;;;;;;;;;;5032468;28;20448;-77
2021/07/04 08:28:19;;;;;;;11.40;5.93;;;;;;;;;;5032705;28;20404;-78
2021/07/04 08:30:46;;;;;;;10.03;6.03;;;;;;;;;;5034088;28;20413;-78
2021/07/04 08:33:12;;;;;;;7.10;6.37;;;;;;;;;;5033743;28;20905;-78
2021/07/04 08:35:38;;;;;;;7.50;5.53;;;;;;;;;;5033660;28;20838;-78
2021/07/04 08:38:05;;;;;;;10.10;5.73;;;;;;;;;;5034052;28;20906;-78
2021/07/04 08:40:31;;;;;;;7.43;5.80;;;;;;;;;;5033936;28;20500;-78
2021/07/04 08:42:57;;;;;;;6.80;5.50;;;;;;;;;;5033571;28;20408;-77
2021/07/04 08:45:23;;;;;;;6.50;5.80;;;;;;;;;;5033704;28;20516;-77
2021/07/04 08:47:49;;;;;;;6.10;5.50;;;;;;;;;;5033672;28;20790;-77
2021/07/04 08:50:15;;;;;;;6.93;5.50;;;;;;;;;;5033576;28;20496;-77
2021/07/04 08:52:41;;;;;;;5.90;5.30;;;;;;;;;;5033710;28;20416;-77
2021/07/04 08:55:08;;;;;;;5.83;4.80;;;;;;;;;;5032408;28;20488;-77
2021/07/04 08:57:34;;;;;;;5.13;4.67;;;;;;;;;;5032555;28;20420;-77
2021/07/04 09:00:00;;;;;;;5.33;4.73;;;;;;;;;;5033668;28;20404;-77
2021/07/04 09:02:31;;;;;;;5.43;4.70;;;;;;;;;;5033417;28;20471;-77
2021/07/04 09:05:00;;;;;;;4.60;4.17;;;;;;;;;;5031878;28;20428;-77
2021/07/04 09:07:26;;;;;;;5.00;4.60;;;;;;;;;;5033779;28;20409;-77
2021/07/04 09:09:59;;;;;;;5.93;5.33;;;;;;;;;;5033558;28;20419;-78
2021/07/04 09:12:35;;;;;;;5.37;4.87;;;;;;;;;;5033280;28;20404;-77
2021/07/04 09:15:07;;;;;;;5.27;4.77;;;;;;;;;;5032844;28;20531;-77
2021/07/04 09:17:34;;;;;;;4.80;4.40;;;;;;;;;;5033391;28;20409;-79
2021/07/04 09:20:00;;;;;;;6.50;5.13;;;;;;;;;;5033281;28;20409;-77
2021/07/04 09:22:28;;;;;;;4.73;4.27;;;;;;;;;;5032744;28;20406;-78
2021/07/04 09:24:54;;;;;;;5.50;4.87;;;;;;;;;;5031494;28;20536;-78
2021/07/04 09:27:20;;;;;;;7.80;5.50;;;;;;;;;;5033426;28;20413;-78
2021/07/04 09:29:50;;;;;;;4.63;4.20;;;;;;;;;;5033167;28;20751;-78
2021/07/04 09:32:26;;;;;;;5.40;4.80;;;;;;;;;;5033027;28;20808;-78
2021/07/04 09:34:57;;;;;;;4.90;4.50;;;;;;;;;;5032801;28;20803;-78
2021/07/04 09:37:27;;;;;;;4.67;4.27;;;;;;;;;;5032998;28;20416;-79
2021/07/04 09:40:14;;;;;;;7.53;4.60;;;;;;;;;;5033109;28;20443;-78
2021/07/04 09:42:56;;;;;;;4.57;4.17;;;;;;;;;;5032806;28;20440;-77
2021/07/04 09:45:23;;;;;;;4.30;3.87;;;;;;;;;;5031665;28;20471;-77
2021/07/04 09:47:56;;;;;;;4.93;4.37;;;;;;;;;;5031881;28;20894;-77
2021/07/04 09:50:22;;;;;;;4.60;4.20;;;;;;;;;;5032773;28;20409;-78
2021/07/04 09:53:15;;;;;;;5.40;3.70;;;;;;;;;;5032542;28;20515;-77
2021/07/04 09:55:41;;;;;;;6.50;3.80;;;;;;;;;;5031676;28;20507;-77
2021/07/04 09:58:09;;;;;;;8.63;5.40;;;;;;;;;;5032947;28;20794;-77
2021/07/04 10:00:37;;;;;;;5.30;4.80;;;;;;;;;;5032587;28;20452;-81
2021/07/04 10:03:08;;;;;;;6.00;5.40;;;;;;;;;;5032597;28;20409;-79
2021/07/04 10:05:34;;;;;;;6.40;5.80;;;;;;;;;;5032717;28;20455;-79
2021/07/04 10:08:00;;;;;;;7.23;6.30;;;;;;;;;;5032682;28;20776;-78
2021/07/04 10:10:26;;;;;;;7.00;6.37;;;;;;;;;;5031385;28;20444;-78
2021/07/04 10:12:54;;;;;;;9.67;7.70;;;;;;;;;;5032290;28;20420;-79
2021/07/04 10:15:20;;;;;;;8.37;7.63;;;;;;;;;;5032392;28;20486;-77
2021/07/04 10:17:46;;;;;;;10.33;8.10;;;;;;;;;;5032697;28;20873;-78
2021/07/04 10:20:12;;;;;;;9.20;8.30;;;;;;;;;;5032782;28;20401;-77
2021/07/04 10:22:39;;;;;;;8.47;7.43;;;;;;;;;;5032589;28;20409;-77
2021/07/04 10:25:05;;;;;;;8.43;7.50;;;;;;;;;;5032328;28;20429;-77
2021/07/04 10:27:36;;;;;;;8.23;7.43;;;;;;;;;;5031423;28;20560;-77
2021/07/04 10:30:04;;;;;;;6.10;5.50;;;;;;;;;;5032635;28;20409;-77
2021/07/04 10:32:30;;;;;;;10.43;5.67;;;;;;;;;;5032527;28;20437;-77
2021/07/04 10:35:04;;;;;;;4.83;4.33;;;;;;;;;;5033472;28;20415;-77
2021/07/04 10:37:31;;;;;;;7.10;5.40;;;;;;;;;;5036175;28;20773;-78
2021/07/04 10:40:27;;;;;;;4.50;4.10;;;;;;;;;;5036346;28;20410;-77
2021/07/04 10:42:53;;;;;;;4.97;4.67;;;;;;;;;;5030933;28;20465;-77
2021/07/04 10:45:29;;;;;;;6.10;5.60;;;;;;;;;;5034805;28;20441;-78
2021/07/04 10:48:17;;;;;;;5.30;4.20;;;;;;;;;;5018323;28;20431;-77
2021/07/04 10:51:02;;;;;;;5.30;4.90;;;;;;;;;;5035931;28;20415;-79
2021/07/04 10:53:48;;;;;;;6.13;5.50;;;;;;;;;;5035540;28;20405;-78
2021/07/04 10:56:33;;;;;;;6.67;6.07;;;;;;;;;;5034455;28;20457;-77
2021/07/04 10:59:19;;;;;;;5.43;5.03;;;;;;;;;;5035591;28;20499;-78
2021/07/04 11:01:52;;;;;;;5.20;4.80;;;;;;;;;;5034659;28;20408;-78
2021/07/04 11:04:33;;;;;;;9.40;5.37;;;;;;;;;;5035284;28;20794;-77
2021/07/04 11:07:03;;;;;;;5.70;5.20;;;;;;;;;;5035646;28;20442;-78
2021/07/04 11:10:07;;;;;;;5.83;5.33;;;;;;;;;;5035526;28;20420;-78
2021/07/04 11:12:34;;;;;;;5.60;5.10;;;;;;;;;;5013638;28;20428;-77
2021/07/04 11:15:15;;;;;;;3.77;3.47;;;;;;;;;;5013074;28;20611;-78
2021/07/04 11:20:22;;;;;;;3.63;3.33;;;;;;;;;;5045771;28;20425;-78
2021/07/04 11:22:53;;;;;;;4.40;4.10;;;;;;;;;;5054943;28;20802;-77
2021/07/04 11:25:20;;;;;;;4.23;3.93;;;;;;;;;;5046762;28;20448;-77
2021/07/04 11:27:46;;;;;;;4.60;4.20;;;;;;;;;;5043667;28;20421;-78
2021/07/04 11:30:18;;;;;;;4.60;4.20;;;;;;;;;;5046404;28;20782;-79
2021/07/04 11:32:44;;;;;;;4.93;4.17;;;;;;;;;;5054845;28;20772;-80
2021/07/04 11:35:10;;;;;;;5.07;4.40;;;;;;;;;;5054766;28;20940;-79
2021/07/04 11:37:37;;;;;;;5.30;4.70;;;;;;;;;;5055060;28;20408;-78
2021/07/04 11:40:04;;;;;;;4.53;4.10;;;;;;;;;;5054913;28;20408;-80
2021/07/04 11:42:30;;;;;;;4.27;3.87;;;;;;;;;;5054918;28;20820;-81
2021/07/04 11:44:56;;;;;;;4.93;4.43;;;;;;;;;;5054067;28;20432;-82
2021/07/04 11:47:22;;;;;;;4.10;3.70;;;;;;;;;;5054523;28;20419;-80
2021/07/04 11:49:48;;;;;;;4.23;3.80;;;;;;;;;;5054699;28;20408;-79
2021/07/04 11:52:20;;;;;;;3.80;3.50;;;;;;;;;;5054671;28;20812;-78
2021/07/04 11:54:47;;;;;;;4.60;4.30;;;;;;;;;;5053251;28;20467;-79
2021/07/04 11:57:34;;;;;;;3.60;3.30;;;;;;;;;;5054526;28;20425;-80
2021/07/04 12:00:07;;;;;;;4.43;3.70;;;;;;;;;;5054877;28;20469;-78
2021/07/04 12:02:35;;;;;;;4.33;4.00;;;;;;;;;;5054544;28;20404;-78
2021/07/04 12:05:11;;;;;;;4.73;4.10;;;;;;;;;;5054218;28;20514;-80
2021/07/04 12:07:37;;;;;;;3.73;3.43;;;;;;;;;;5039661;28;20400;-78
2021/07/04 12:10:04;;;;;;;3.67;3.37;;;;;;;;;;5049603;28;20387;-78
2021/07/04 12:12:31;;;;;;;4.30;3.70;;;;;;;;;;5052174;28;20459;-77
2021/07/04 12:15:06;;;;;;;5.30;4.07;;;;;;;;;;5051385;28;20450;-79
2021/07/04 12:17:34;;;;;;;3.53;3.23;;;;;;;;;;5051011;28;20408;-77
2021/07/04 12:20:02;;;;;;;4.83;3.00;;;;;;;;;;5052249;28;20407;-78
2021/07/04 12:22:30;;;;;;;1.60;1.50;;;;;;;;;;5053003;28;20960;-78
2021/07/04 12:24:57;;;;;;;1.63;1.53;;;;;;;;;;5042085;28;20387;-78
2021/07/04 12:27:33;;;;;;;1.70;1.43;;;;;;;;;;5044915;28;20755;-78
2021/07/04 12:30:00;;;;;;;2.87;1.63;;;;;;;;;;5043139;28;20773;-78
2021/07/04 12:32:28;;;;;;;3.73;1.77;;;;;;;;;;5037499;28;20496;-78
2021/07/04 12:34:54;;;;;;;2.20;1.10;;;;;;;;;;5033808;28;20413;-79
2021/07/04 12:37:21;;;;;;;1.87;1.17;;;;;;;;;;5043563;28;20412;-79
2021/07/04 12:39:47;;;;;;;1.67;1.10;;;;;;;;;;5030755;28;20903;-77
2021/07/04 12:42:26;;;;;;;3.37;1.17;;;;;;;;;;5043622;28;20379;-77
2021/07/04 12:45:06;;;;;;;1.90;0.80;;;;;;;;;;5050986;28;20406;-77
2021/07/04 12:47:32;;;;;;;5.13;1.00;;;;;;;;;;5053457;28;20406;-76
2021/07/04 12:49:59;;;;;;;1.33;1.10;;;;;;;;;;5053498;28;20411;-76
2021/07/04 12:52:25;;;;;;;2.70;1.40;;;;;;;;;;5052328;28;20408;-77
2021/07/04 12:54:51;;;;;;;10.07;2.63;;;;;;;;;;5051812;28;20407;-78
2021/07/04 12:57:29;;;;;;;9.77;2.40;;;;;;;;;;5052783;28;20387;-80
2021/07/04 12:59:55;;;;;;;8.97;2.97;;;;;;;;;;5052020;28;20447;-80
2021/07/04 13:02:21;;;;;;;5.10;2.50;;;;;;;;;;5052172;28;20452;-78
2021/07/04 13:04:48;;;;;;;3.10;1.83;;;;;;;;;;5053022;28;20435;-78
2021/07/04 13:07:21;;;;;;;6.00;1.47;;;;;;;;;;5052348;28;20412;-80
2021/07/04 13:09:46;;;;;;;2.50;1.90;;;;;;;;;;5052420;28;20423;-80
2021/07/04 13:12:20;;;;;;;8.37;2.47;;;;;;;;;;5052479;28;20420;-79
2021/07/04 13:14:46;;;;;;;3.97;2.30;;;;;;;;;;5053002;28;20444;-78
2021/07/04 13:17:18;;;;;;;2.20;2.00;;;;;;;;;;5053480;28;20516;-80
2021/07/04 13:19:44;;;;;;;3.70;2.50;;;;;;;;;;5051976;28;20765;-81
2021/07/04 13:22:30;;;;;;;1.67;1.53;;;;;;;;;;5053304;28;20412;-80
2021/07/04 13:24:57;;;;;;;3.87;1.17;;;;;;;;;;5052771;28;20424;-81
2021/07/04 13:27:27;;;;;;;1.77;1.40;;;;;;;;;;5053169;28;20378;-79
2021/07/04 13:29:54;;;;;;;1.43;1.17;;;;;;;;;;5053083;28;20397;-79
2021/07/04 13:32:22;;;;;;;1.57;0.67;;;;;;;;;;5051785;28;20412;-79
2021/07/04 13:35:07;;;;;;;1.00;0.80;;;;;;;;;;5052688;28;20466;-82
2021/07/04 13:37:33;;;;;;;3.60;1.30;;;;;;;;;;5051953;28;20474;-78
2021/07/04 13:40:02;;;;;;;1.50;0.70;;;;;;;;;;5053042;28;20400;-79
2021/07/04 13:42:30;;;;;;;3.13;1.00;;;;;;;;;;5053049;28;20436;-79
2021/07/04 13:44:56;;;;;;;2.80;1.00;;;;;;;;;;5052773;28;20420;-79
2021/07/04 13:47:23;;;;;;;1.00;0.80;;;;;;;;;;5053006;28;20411;-79
2021/07/04 13:49:49;;;;;;;1.77;0.90;;;;;;;;;;5052403;28;20404;-78
2021/07/04 13:52:15;;;;;;;1.87;1.20;;;;;;;;;;5052654;28;20411;-79
2021/07/04 13:54:42;;;;;;;1.83;0.80;;;;;;;;;;5052465;28;20806;-79
2021/07/04 13:57:09;;;;;;;2.10;1.10;;;;;;;;;;5052940;28;20466;-79
2021/07/04 13:59:35;;;;;;;3.90;0.90;;;;;;;;;;5052821;28;20495;-80
2021/07/04 14:02:01;;;;;;;1.37;0.80;;;;;;;;;;5052822;28;20819;-80
2021/07/04 14:04:27;;;;;;;5.33;1.20;;;;;;;;;;5052297;28;20855;-79
2021/07/04 14:06:53;;;;;;;1.27;0.67;;;;;;;;;;5053085;28;20421;-80
2021/07/04 14:09:21;;;;;;;3.70;0.90;;;;;;;;;;5055209;28;20396;-80
2021/07/04 14:11:47;;;;;;;1.40;1.17;;;;;;;;;;5056908;28;20411;-80
2021/07/04 14:14:13;;;;;;;1.43;1.20;;;;;;;;;;5056185;28;20440;-80
2021/07/04 14:16:39;;;;;;;7.00;4.23;;;;;;;;;;5056498;28;20459;-79
2021/07/04 14:19:05;;;;;;;2.40;1.80;;;;;;;;;;5056563;28;20447;-80
2021/07/04 14:21:34;;;;;;;3.80;1.13;;;;;;;;;;5038890;28;20415;-79
2021/07/04 14:24:00;;;;;;;1.30;1.10;;;;;;;;;;5054978;28;20932;-79
2021/07/04 14:26:26;;;;;;;3.00;1.50;;;;;;;;;;5055412;28;20408;-79
2021/07/04 14:28:52;;;;;;;1.77;1.43;;;;;;;;;;5056333;28;20412;-80
2021/07/04 14:31:18;;;;;;;1.47;1.10;;;;;;;;;;5055338;28;20886;-79
2021/07/04 14:33:45;;;;;;;2.33;1.37;;;;;;;;;;5054980;28;20407;-79
2021/07/04 14:36:11;;;;;;;2.50;1.10;;;;;;;;;;5054850;28;20952;-79